createdAt,value
2022-11-17T00:02:19.689Z,-3.02
2022-11-17T00:04:48.916Z,-3.34
2022-11-17T00:07:18.146Z,-2.89
2022-11-17T00:09:47.371Z,-3.37
2022-11-17T00:12:33.634Z,-3.99
2022-11-17T00:15:04.352Z,-3.89
2022-11-17T00:17:33.498Z,-3.49
2022-11-17T00:20:19.800Z,-3.24
2022-11-17T00:22:49.004Z,-2.91
2022-11-17T00:25:18.481Z,-3.44
2022-11-17T00:27:47.780Z,-3.16
2022-11-17T00:30:32.316Z,-3.48
2022-11-17T00:33:21.391Z,-3.30
2022-11-17T00:35:55.360Z,-2.70
2022-11-17T00:38:24.478Z,-2.92
2022-11-17T00:40:53.623Z,-2.91
2022-11-17T00:43:22.784Z,-3.52
2022-11-17T00:45:53.428Z,-3.10
2022-11-17T00:48:22.576Z,-2.95
2022-11-17T00:50:51.785Z,-3.13
2022-11-17T00:53:21.111Z,-2.75
2022-11-17T00:55:50.415Z,-3.85
2022-11-17T00:58:19.637Z,-2.93
2022-11-17T01:00:50.960Z,-3.66
2022-11-17T01:03:21.665Z,-3.36
2022-11-17T01:05:50.865Z,-2.97
2022-11-17T01:08:20.071Z,-3.90
2022-11-17T01:10:49.291Z,-3.37
2022-11-17T01:13:20.188Z,-3.63
2022-11-17T10:11:45.658Z,-4.91
2022-11-17T10:14:16.621Z,-4.95
2022-11-17T10:16:52.193Z,-4.94
2022-11-17T10:19:23.461Z,-5.02
2022-11-17T10:21:55.388Z,-5.01
2022-11-17T10:24:38.936Z,-5.13
2022-11-17T10:27:22.179Z,-5.17
2022-11-17T10:30:00.244Z,-5.17
2022-11-17T10:32:30.634Z,-5.21
2022-11-17T10:35:17.842Z,-5.30
2022-11-17T10:37:57.494Z,-5.46
2022-11-17T10:40:28.678Z,-5.34
2022-11-17T10:43:05.002Z,-5.50
2022-11-17T10:45:35.311Z,-5.44
2022-11-17T10:48:17.655Z,-5.36
2022-11-17T10:50:54.867Z,-5.39
2022-11-17T10:53:30.301Z,-5.45
2022-11-17T10:56:03.852Z,-5.41
2022-11-17T10:58:35.328Z,-5.42
2022-11-17T11:01:05.852Z,-5.43
2022-11-17T11:03:36.648Z,-5.44
2022-11-17T11:06:11.907Z,-5.47
2022-11-17T11:08:51.387Z,-5.47
2022-11-17T11:11:36.124Z,-5.53
2022-11-17T11:14:16.454Z,-5.49
2022-11-17T11:16:48.544Z,-5.67
2022-11-17T11:19:19.682Z,-5.59
2022-11-17T11:22:20.992Z,-5.64
2022-11-17T11:24:56.422Z,-5.57
2022-11-17T11:27:47.414Z,-5.58
2022-11-17T11:30:21.925Z,-5.63
2022-11-17T11:33:03.407Z,-5.56
2022-11-17T11:35:56.634Z,-5.57
2022-11-17T11:38:39.750Z,-5.57
2022-11-17T11:41:21.597Z,-5.54
2022-11-17T11:44:21.716Z,-5.52
2022-11-17T11:47:01.705Z,-5.62
2022-11-17T11:49:36.771Z,-5.51
2022-11-17T11:52:12.866Z,-5.55
2022-11-17T11:54:50.879Z,-5.50
2022-11-17T11:57:26.954Z,-5.56
2022-11-17T12:00:04.724Z,-5.63
2022-11-17T12:02:44.715Z,-5.73
2022-11-17T12:05:23.600Z,-5.62
2022-11-17T12:07:58.200Z,-6.75
2022-11-17T12:10:33.379Z,-6.54
2022-11-17T12:13:03.936Z,-6.55
2022-11-17T12:15:36.330Z,-5.78
2022-11-17T12:18:14.019Z,-5.56
2022-11-17T12:20:57.710Z,-5.61
2022-11-17T12:23:44.542Z,-6.17
2022-11-17T12:26:24.607Z,-6.79
2022-11-17T12:29:31.231Z,-5.76
2022-11-17T12:32:02.374Z,-5.59
2022-11-17T12:34:36.272Z,-6.65
2022-11-17T12:37:29.350Z,-6.06
2022-11-17T12:40:03.720Z,-5.87
2022-11-17T12:42:34.406Z,-6.02
2022-11-17T12:45:12.441Z,-6.11
2022-11-17T12:47:50.898Z,-6.66
2022-11-17T12:50:52.324Z,-6.73
2022-11-17T12:53:57.394Z,-6.12
2022-11-17T12:56:52.809Z,-5.94
2022-11-17T12:59:48.630Z,-5.95
2022-11-17T13:02:32.935Z,-6.30
2022-11-17T13:05:07.195Z,-6.19
2022-11-17T13:07:38.124Z,-6.17
2022-11-17T13:10:08.179Z,-5.88
2022-11-17T13:12:37.864Z,-5.95
2022-11-17T13:15:08.174Z,-6.19
2022-11-17T13:17:43.017Z,-6.98
2022-11-17T13:20:21.122Z,-5.88
2022-11-17T13:23:03.049Z,-6.26
2022-11-17T13:25:32.684Z,-5.89
2022-11-17T13:28:05.034Z,-5.95
2022-11-17T13:30:35.008Z,-5.94
2022-11-17T13:33:04.863Z,-6.60
2022-11-17T13:35:36.533Z,-6.23
2022-11-17T13:38:17.917Z,-6.72
2022-11-17T13:40:48.069Z,-6.92
2022-11-17T13:43:20.961Z,-6.31
2022-11-17T13:45:50.784Z,-7.31
2022-11-17T13:48:37.184Z,-6.16
2022-11-17T13:51:29.858Z,-5.93
2022-11-17T13:54:03.517Z,-7.35
2022-11-17T13:56:37.251Z,-5.87
2022-11-17T13:59:18.660Z,-6.69
2022-11-17T14:01:48.107Z,-6.42
2022-11-17T14:04:20.741Z,-6.49
2022-11-17T14:06:58.476Z,-5.97
2022-11-17T14:09:31.207Z,-5.85
2022-11-17T14:12:02.119Z,-6.23
2022-11-17T14:14:38.283Z,-6.46
2022-11-17T14:17:22.526Z,-6.56
2022-11-17T14:19:51.986Z,-6.11
2022-11-17T14:22:31.252Z,-6.02
2022-11-17T14:25:02.783Z,-5.83
2022-11-17T14:27:41.167Z,-6.64
2022-11-17T14:30:16.385Z,-6.14
2022-11-17T14:32:45.667Z,-6.34
2022-11-17T14:37:45.649Z,-6.18
2022-11-17T14:40:19.119Z,-5.80
2022-11-17T14:42:48.378Z,-6.02
2022-11-17T14:45:18.918Z,-6.40
2022-11-17T14:47:48.530Z,-5.96
2022-11-17T14:50:18.825Z,-6.53
2022-11-17T14:52:48.194Z,-6.68
2022-11-17T14:55:19.867Z,-6.59
2022-11-17T14:57:50.143Z,-6.50
2022-11-17T15:00:20.972Z,-6.44
2022-11-17T15:02:50.374Z,-5.88
2022-11-17T15:05:19.728Z,-5.95
2022-11-17T15:07:48.998Z,-6.29
2022-11-17T15:10:20.200Z,-6.16
2022-11-17T15:12:49.502Z,-6.52
2022-11-17T15:15:19.510Z,-6.28
2022-11-17T15:17:48.849Z,-6.02
2022-11-17T15:20:18.604Z,-5.92
2022-11-17T15:22:48.543Z,-6.92
2022-11-17T15:25:19.543Z,-5.97
2022-11-17T15:27:48.883Z,-6.58
2022-11-17T15:30:18.958Z,-6.04
2022-11-17T15:32:48.201Z,-6.62
2022-11-17T15:35:17.658Z,-6.98
2022-11-17T15:37:46.963Z,-6.54
2022-11-17T15:40:19.399Z,-6.05
2022-11-17T15:42:50.516Z,-6.00
2022-11-17T15:45:19.819Z,-6.66
2022-11-17T15:47:49.156Z,-6.07
2022-11-17T15:50:20.185Z,-6.23
2022-11-17T15:53:03.605Z,-6.08
2022-11-17T15:55:35.978Z,-6.45
2022-11-17T15:58:06.695Z,-6.27
2022-11-17T16:00:36.102Z,-5.93
2022-11-17T16:03:07.337Z,-6.72
2022-11-17T16:05:36.968Z,-6.28
2022-11-17T16:08:06.342Z,-6.82
2022-11-17T16:10:35.619Z,-6.00
2022-11-17T16:13:06.377Z,-6.27
2022-11-17T16:15:35.704Z,-6.23
2022-11-17T16:18:05.022Z,-6.42
2022-11-17T16:20:34.337Z,-6.28
2022-11-17T16:23:03.703Z,-6.82
2022-11-17T16:25:33.069Z,-6.22
2022-11-17T16:28:02.300Z,-6.66
2022-11-17T16:30:35.628Z,-6.82
2022-11-17T16:33:05.835Z,-6.68
2022-11-17T16:35:35.119Z,-5.98
2022-11-17T16:38:04.557Z,-6.98
2022-11-17T16:40:35.617Z,-6.13
2022-11-17T16:43:04.915Z,-6.70
2022-11-17T16:45:43.828Z,-6.28
2022-11-17T16:48:13.734Z,-6.58
2022-11-17T16:50:43.407Z,-6.07
2022-11-17T16:53:12.599Z,-6.72
2022-11-17T16:55:42.537Z,-6.02
2022-11-17T16:58:13.152Z,-6.62
2022-11-17T17:00:43.874Z,-6.75
2022-11-17T17:03:13.135Z,-6.17
2022-11-17T17:05:42.380Z,-6.69
2022-11-17T17:08:14.634Z,-6.43
2022-11-17T17:10:44.074Z,-6.40
2022-11-17T17:13:14.490Z,-6.33
2022-11-17T17:15:45.316Z,-6.62
2022-11-17T17:18:14.704Z,-6.33
2022-11-17T17:20:52.240Z,-6.57
2022-11-17T17:23:21.584Z,-7.33
2022-11-17T17:25:50.975Z,-6.72
2022-11-17T17:28:20.264Z,-6.42
2022-11-17T17:30:57.442Z,-6.47
2022-11-17T17:33:26.818Z,-7.32
2022-11-17T17:35:56.082Z,-6.74
2022-11-17T17:38:27.000Z,-6.77
2022-11-17T17:40:56.372Z,-6.53
2022-11-17T17:43:25.803Z,-7.38
2022-11-17T17:46:01.677Z,-6.60
2022-11-17T17:48:30.364Z,-6.61
2022-11-17T17:51:03.297Z,-7.36
2022-11-17T17:53:32.793Z,-7.02
2022-11-17T17:56:02.432Z,-7.01
2022-11-17T17:58:32.086Z,-8.13
2022-11-17T18:01:11.892Z,-7.60
2022-11-17T18:03:43.656Z,-7.66
2022-11-17T18:06:13.039Z,-7.34
2022-11-17T18:08:42.365Z,-7.78
2022-11-17T18:11:14.622Z,-7.48
2022-11-17T18:13:45.926Z,-7.89
2022-11-17T18:16:18.857Z,-8.12
2022-11-17T18:18:48.324Z,-7.42
2022-11-17T18:21:19.824Z,-7.48
2022-11-17T18:23:49.009Z,-7.85
2022-11-17T18:26:20.934Z,-8.23
2022-11-17T18:28:53.611Z,-8.10
2022-11-17T18:31:25.955Z,-7.40
2022-11-17T18:33:56.557Z,-8.17
2022-11-17T18:36:26.509Z,-8.26
2022-11-17T18:38:58.440Z,-7.80
2022-11-17T18:41:31.163Z,-8.35
2022-11-17T18:44:00.550Z,-8.16
2022-11-17T18:46:33.427Z,-8.11
2022-11-17T18:49:02.989Z,-8.64
2022-11-17T18:51:34.703Z,-7.40
2022-11-17T18:54:04.920Z,-8.46
2022-11-17T18:56:35.971Z,-8.14
2022-11-17T18:59:11.813Z,-7.61
2022-11-17T19:01:44.370Z,-8.14
2022-11-17T19:04:15.624Z,-8.16
2022-11-17T19:06:45.262Z,-7.92
2022-11-17T19:09:14.846Z,-7.43
2022-11-17T19:11:44.264Z,-7.56
2022-11-17T19:14:13.729Z,-7.70
2022-11-17T19:16:45.365Z,-7.71
2022-11-17T19:19:15.726Z,-7.55
2022-11-17T19:21:45.914Z,-7.32
2022-11-17T19:24:17.450Z,-8.56
2022-11-17T19:26:47.813Z,-7.95
2022-11-17T19:29:17.802Z,-7.48
2022-11-17T19:31:49.799Z,-8.22
2022-11-17T19:34:19.116Z,-8.27
2022-11-17T19:36:48.366Z,-7.59
2022-11-17T19:39:18.084Z,-7.27
2022-11-17T19:41:48.170Z,-7.43
2022-11-17T19:44:17.471Z,-7.62
2022-11-17T19:46:48.384Z,-7.68
2022-11-17T19:49:27.161Z,-7.30
2022-11-17T19:51:56.517Z,-8.26
2022-11-17T19:54:25.910Z,-7.51
2022-11-17T19:56:55.299Z,-7.92
2022-11-17T19:59:24.718Z,-8.04
2022-11-17T20:01:55.601Z,-7.75
2022-11-17T20:04:25.171Z,-7.36
2022-11-17T20:06:54.547Z,-7.38
2022-11-17T20:09:24.005Z,-7.66
2022-11-17T20:11:53.332Z,-8.43
2022-11-17T20:14:22.577Z,-8.36
2022-11-17T20:16:51.846Z,-8.29
2022-11-17T20:19:22.587Z,-7.45
2022-11-17T20:21:51.986Z,-8.37
2022-11-17T20:24:21.177Z,-7.76
2022-11-17T20:26:51.072Z,-7.53
2022-11-17T20:29:20.487Z,-7.55
2022-11-17T20:31:49.752Z,-8.30
2022-11-17T20:34:19.146Z,-8.63
2022-11-17T20:36:49.949Z,-8.61
2022-11-17T20:39:19.387Z,-7.85
2022-11-17T20:41:48.733Z,-8.16
2022-11-17T20:44:26.808Z,-7.61
2022-11-17T20:46:57.048Z,-7.98
2022-11-17T20:49:28.716Z,-8.33
2022-11-17T20:51:59.703Z,-7.93
2022-11-17T20:54:28.906Z,-7.80
2022-11-17T20:56:58.252Z,-8.23
2022-11-17T20:59:27.546Z,-8.36
2022-11-17T21:01:56.896Z,-8.11
2022-11-17T21:04:26.056Z,-7.78
2022-11-17T21:06:55.300Z,-7.93
2022-11-17T21:09:26.013Z,-7.71
2022-11-17T21:11:58.106Z,-7.80
2022-11-17T21:14:28.257Z,-7.77
2022-11-17T21:17:00.871Z,-8.35
2022-11-17T21:19:33.229Z,-7.51
2022-11-17T21:22:04.579Z,-8.61
2022-11-17T21:24:35.393Z,-8.25
2022-11-17T21:27:04.614Z,-8.17
2022-11-17T21:29:33.892Z,-8.18
2022-11-17T21:32:03.226Z,-7.81
2022-11-17T21:34:32.514Z,-8.53
2022-11-17T21:37:01.785Z,-9.13
2022-11-17T21:39:30.988Z,-7.99
2022-11-17T21:42:01.740Z,-8.25
2022-11-17T21:44:30.971Z,-8.56
2022-11-17T21:47:00.556Z,-7.77
2022-11-17T21:49:30.128Z,-8.00
2022-11-17T21:51:59.303Z,-8.42
2022-11-17T21:54:28.618Z,-7.75
2022-11-17T21:56:57.946Z,-7.77
2022-11-17T21:59:28.759Z,-8.43
2022-11-17T22:01:58.055Z,-8.34
2022-11-17T22:04:27.371Z,-8.33
2022-11-17T22:06:56.804Z,-7.99
2022-11-17T22:09:26.084Z,-7.69
2022-11-17T22:11:56.229Z,-8.60
2022-11-17T22:14:25.605Z,-8.55
2022-11-17T22:16:57.198Z,-7.56
2022-11-17T22:19:29.574Z,-7.72
2022-11-17T22:21:58.867Z,-8.65
2022-11-17T22:24:28.106Z,-8.21
2022-11-17T22:26:57.357Z,-7.58
2022-11-17T22:29:26.572Z,-7.93
2022-11-17T22:31:57.317Z,-7.59
2022-11-17T22:34:26.650Z,-7.81
2022-11-17T22:36:55.905Z,-7.77
2022-11-17T22:39:25.159Z,-7.92
2022-11-17T22:41:54.494Z,-7.42
2022-11-17T22:44:24.060Z,-7.88
2022-11-17T22:46:53.331Z,-7.91
2022-11-17T22:49:24.036Z,-8.47
2022-11-17T22:52:06.241Z,-8.52
2022-11-17T22:54:36.137Z,-7.63
2022-11-17T22:57:05.534Z,-7.50
2022-11-17T22:59:35.275Z,-7.71
2022-11-17T23:02:04.571Z,-7.53
2022-11-17T23:04:35.443Z,-7.91
2022-11-17T23:07:04.943Z,-7.59
2022-11-17T23:09:34.305Z,-8.21
2022-11-17T23:12:03.641Z,-8.04
2022-11-17T23:14:32.857Z,-8.59
2022-11-17T23:17:02.124Z,-8.83
2022-11-17T23:19:31.509Z,-7.81
2022-11-17T23:22:02.597Z,-8.88
2022-11-17T23:24:31.913Z,-8.39
2022-11-17T23:27:01.287Z,-8.63
2022-11-17T23:29:30.561Z,-9.50
2022-11-17T23:31:59.868Z,-8.83
2022-11-17T23:34:29.374Z,-8.44
2022-11-17T23:37:03.480Z,-8.81
2022-11-17T23:39:35.094Z,-8.61
2022-11-17T23:42:04.489Z,-7.97
2022-11-17T23:44:34.021Z,-8.84
2022-11-17T23:47:03.352Z,-9.07
2022-11-17T23:49:32.712Z,-8.82
2022-11-17T23:52:01.996Z,-7.97
2022-11-17T23:54:31.245Z,-8.65
2022-11-17T23:57:02.216Z,-8.20
2022-11-17T23:59:31.547Z,-8.49
